sensor_id;sensor_type;location;lat;lon;timestamp;pressure;altitude;pressure_sealevel;temperature;humidity
15998;BME280;8103;51.340;12.326;2023-05-03T00:01:40;101383.53;;;9.87;nan
15998;BME280;8103;51.340;12.326;2023-05-03T00:04:09;101380.06;;;9.80;nan
15998;BME280;8103;51.340;12.326;2023-05-03T00:06:36;101382.34;;;9.77;nan
15998;BME280;8103;51.340;12.326;2023-05-03T00:09:03;101391.03;;;9.72;nan
15998;BME280;8103;51.340;12.326;2023-05-03T00:11:31;101389.25;;;9.66;nan
15998;BME280;8103;51.340;12.326;2023-05-03T00:14:00;101395.25;;;9.62;nan
15998;BME280;8103;51.340;12.326;2023-05-03T00:16:28;101389.50;;;9.58;nan
15998;BME280;8103;51.340;12.326;2023-05-03T00:18:56;101394.09;;;9.51;nan
15998;BME280;8103;51.340;12.326;2023-05-03T00:21:23;101389.16;;;9.48;nan
15998;BME280;8103;51.340;12.326;2023-05-03T00:23:50;101390.84;;;9.43;nan
15998;BME280;8103;51.340;12.326;2023-05-03T00:26:20;101390.44;;;9.39;nan
15998;BME280;8103;51.340;12.326;2023-05-03T00:28:48;101394.59;;;9.35;nan
15998;BME280;8103;51.340;12.326;2023-05-03T00:31:14;101392.94;;;9.34;nan
15998;BME280;8103;51.340;12.326;2023-05-03T00:33:41;101381.03;;;9.30;nan
15998;BME280;8103;51.340;12.326;2023-05-03T00:36:14;101388.44;;;9.28;nan
15998;BME280;8103;51.340;12.326;2023-05-03T00:38:41;101382.50;;;9.26;nan
15998;BME280;8103;51.340;12.326;2023-05-03T00:41:09;101380.84;;;9.25;nan
15998;BME280;8103;51.340;12.326;2023-05-03T00:43:37;101379.63;;;9.21;nan
15998;BME280;8103;51.340;12.326;2023-05-03T00:46:06;101377.22;;;9.13;nan
15998;BME280;8103;51.340;12.326;2023-05-03T00:48:44;101388.13;;;9.05;nan
15998;BME280;8103;51.340;12.326;2023-05-03T00:51:13;101394.34;;;8.99;nan
15998;BME280;8103;51.340;12.326;2023-05-03T00:53:42;101389.41;;;8.96;nan
15998;BME280;8103;51.340;12.326;2023-05-03T00:56:09;101383.88;;;8.91;nan
15998;BME280;8103;51.340;12.326;2023-05-03T00:58:39;101383.69;;;8.86;nan
15998;BME280;8103;51.340;12.326;2023-05-03T01:01:06;101378.19;;;8.81;nan
15998;BME280;8103;51.340;12.326;2023-05-03T01:03:36;101383.13;;;8.71;nan
15998;BME280;8103;51.340;12.326;2023-05-03T01:06:30;101380.06;;;8.61;nan
15998;BME280;8103;51.340;12.326;2023-05-03T01:09:11;101381.94;;;8.54;nan
15998;BME280;8103;51.340;12.326;2023-05-03T01:17:11;101372.75;;;8.37;nan
15998;BME280;8103;51.340;12.326;2023-05-03T01:19:54;101380.56;;;8.32;nan
15998;BME280;8103;51.340;12.326;2023-05-03T01:22:59;101381.38;;;8.26;nan
15998;BME280;8103;51.340;12.326;2023-05-03T01:25:27;101378.50;;;8.21;nan
15998;BME280;8103;51.340;12.326;2023-05-03T01:27:54;101379.72;;;8.18;nan
15998;BME280;8103;51.340;12.326;2023-05-03T01:30:25;101385.47;;;8.15;nan
15998;BME280;8103;51.340;12.326;2023-05-03T01:36:29;101388.34;;;8.14;nan
15998;BME280;8103;51.340;12.326;2023-05-03T01:39:05;101387.75;;;8.12;nan
15998;BME280;8103;51.340;12.326;2023-05-03T01:41:34;101388.34;;;8.07;nan
15998;BME280;8103;51.340;12.326;2023-05-03T01:44:04;101395.75;;;8.05;nan
15998;BME280;8103;51.340;12.326;2023-05-03T01:46:31;101390.81;;;8.02;nan
15998;BME280;8103;51.340;12.326;2023-05-03T01:48:58;101393.28;;;8.04;nan
15998;BME280;8103;51.340;12.326;2023-05-03T01:51:25;101397.59;;;8.05;nan
15998;BME280;8103;51.340;12.326;2023-05-03T01:58:11;101395.13;;;8.10;nan
15998;BME280;8103;51.340;12.326;2023-05-03T02:00:38;101395.34;;;8.15;nan
15998;BME280;8103;51.340;12.326;2023-05-03T02:03:05;101399.03;;;8.14;nan
15998;BME280;8103;51.340;12.326;2023-05-03T02:05:31;101393.47;;;8.15;nan
15998;BME280;8103;51.340;12.326;2023-05-03T02:07:58;101399.44;;;8.17;nan
15998;BME280;8103;51.340;12.326;2023-05-03T02:10:25;101390.19;;;8.20;nan
15998;BME280;8103;51.340;12.326;2023-05-03T02:12:52;101397.81;;;8.23;nan
15998;BME280;8103;51.340;12.326;2023-05-03T02:15:20;101390.44;;;8.25;nan
15998;BME280;8103;51.340;12.326;2023-05-03T02:17:47;101397.19;;;8.21;nan
15998;BME280;8103;51.340;12.326;2023-05-03T02:20:15;101402.13;;;8.17;nan
15998;BME280;8103;51.340;12.326;2023-05-03T02:22:42;101402.72;;;8.13;nan
15998;BME280;8103;51.340;12.326;2023-05-03T02:25:08;101403.97;;;8.10;nan
15998;BME280;8103;51.340;12.326;2023-05-03T02:27:35;101410.56;;;8.08;nan
15998;BME280;8103;51.340;12.326;2023-05-03T02:30:03;101410.97;;;8.05;nan
15998;BME280;8103;51.340;12.326;2023-05-03T02:32:30;101408.69;;;8.02;nan
15998;BME280;8103;51.340;12.326;2023-05-03T02:34:57;101406.84;;;7.96;nan
15998;BME280;8103;51.340;12.326;2023-05-03T02:37:24;101408.06;;;7.93;nan
15998;BME280;8103;51.340;12.326;2023-05-03T02:39:51;101410.13;;;7.91;nan
15998;BME280;8103;51.340;12.326;2023-05-03T02:42:18;101418.75;;;7.87;nan
15998;BME280;8103;51.340;12.326;2023-05-03T02:44:48;101410.94;;;7.85;nan
15998;BME280;8103;51.340;12.326;2023-05-03T02:51:30;101414.44;;;7.86;nan
15998;BME280;8103;51.340;12.326;2023-05-03T02:58:04;101413.59;;;7.92;nan
15998;BME280;8103;51.340;12.326;2023-05-03T03:00:31;101414.63;;;7.91;nan
15998;BME280;8103;51.340;12.326;2023-05-03T03:03:07;101417.31;;;7.91;nan
15998;BME280;8103;51.340;12.326;2023-05-03T03:05:34;101416.50;;;7.97;nan
15998;BME280;8103;51.340;12.326;2023-05-03T03:08:08;101416.09;;;8.00;nan
15998;BME280;8103;51.340;12.326;2023-05-03T03:10:35;101425.72;;;8.01;nan
15998;BME280;8103;51.340;12.326;2023-05-03T03:13:03;101415.88;;;8.01;nan
15998;BME280;8103;51.340;12.326;2023-05-03T03:15:36;101417.94;;;7.93;nan
15998;BME280;8103;51.340;12.326;2023-05-03T03:18:20;101418.94;;;7.92;nan
15998;BME280;8103;51.340;12.326;2023-05-03T03:20:47;101422.66;;;7.91;nan
15998;BME280;8103;51.340;12.326;2023-05-03T03:23:15;101420.59;;;7.93;nan
15998;BME280;8103;51.340;12.326;2023-05-03T03:25:44;101419.97;;;7.91;nan
15998;BME280;8103;51.340;12.326;2023-05-03T03:28:11;101424.09;;;7.87;nan
15998;BME280;8103;51.340;12.326;2023-05-03T03:30:38;101428.41;;;7.88;nan
15998;BME280;8103;51.340;12.326;2023-05-03T03:33:05;101429.44;;;7.87;nan
15998;BME280;8103;51.340;12.326;2023-05-03T03:35:32;101434.13;;;7.85;nan
15998;BME280;8103;51.340;12.326;2023-05-03T03:38:01;101437.22;;;7.82;nan
15998;BME280;8103;51.340;12.326;2023-05-03T03:40:28;101430.66;;;7.78;nan
15998;BME280;8103;51.340;12.326;2023-05-03T03:42:55;101437.63;;;7.79;nan
15998;BME280;8103;51.340;12.326;2023-05-03T03:45:23;101441.94;;;7.80;nan
15998;BME280;8103;51.340;12.326;2023-05-03T03:47:51;101444.63;;;7.80;nan
15998;BME280;8103;51.340;12.326;2023-05-03T03:50:19;101438.44;;;7.79;nan
15998;BME280;8103;51.340;12.326;2023-05-03T03:52:46;101442.97;;;7.79;nan
15998;BME280;8103;51.340;12.326;2023-05-03T03:55:23;101441.56;;;7.83;nan
15998;BME280;8103;51.340;12.326;2023-05-03T03:57:54;101446.66;;;7.78;nan
15998;BME280;8103;51.340;12.326;2023-05-03T04:00:24;101441.72;;;7.75;nan
15998;BME280;8103;51.340;12.326;2023-05-03T04:02:51;101447.91;;;7.75;nan
15998;BME280;8103;51.340;12.326;2023-05-03T04:05:23;101458.56;;;7.82;nan
15998;BME280;8103;51.340;12.326;2023-05-03T04:07:50;101463.09;;;7.81;nan
15998;BME280;8103;51.340;12.326;2023-05-03T04:10:18;101460.63;;;7.80;nan
15998;BME280;8103;51.340;12.326;2023-05-03T04:12:45;101463.31;;;7.80;nan
15998;BME280;8103;51.340;12.326;2023-05-03T04:15:12;101464.31;;;7.79;nan
15998;BME280;8103;51.340;12.326;2023-05-03T04:17:39;101466.81;;;7.87;nan
15998;BME280;8103;51.340;12.326;2023-05-03T04:20:07;101477.09;;;7.90;nan
15998;BME280;8103;51.340;12.326;2023-05-03T04:22:39;101476.69;;;7.93;nan
15998;BME280;8103;51.340;12.326;2023-05-03T04:25:10;101482.41;;;7.90;nan
15998;BME280;8103;51.340;12.326;2023-05-03T04:27:40;101488.16;;;7.93;nan
15998;BME280;8103;51.340;12.326;2023-05-03T04:30:08;101486.94;;;8.02;nan
15998;BME280;8103;51.340;12.326;2023-05-03T04:32:37;101489.81;;;8.01;nan
15998;BME280;8103;51.340;12.326;2023-05-03T04:35:07;101496.81;;;8.02;nan
15998;BME280;8103;51.340;12.326;2023-05-03T04:37:39;101492.09;;;8.04;nan
15998;BME280;8103;51.340;12.326;2023-05-03T04:40:07;101497.25;;;8.12;nan
15998;BME280;8103;51.340;12.326;2023-05-03T04:42:36;101504.22;;;8.13;nan
15998;BME280;8103;51.340;12.326;2023-05-03T04:45:03;101512.47;;;8.18;nan
15998;BME280;8103;51.340;12.326;2023-05-03T04:47:32;101500.09;;;8.17;nan
15998;BME280;8103;51.340;12.326;2023-05-03T04:49:59;101512.47;;;8.18;nan
15998;BME280;8103;51.340;12.326;2023-05-03T04:52:27;101516.19;;;8.23;nan
15998;BME280;8103;51.340;12.326;2023-05-03T04:54:57;101509.19;;;8.29;nan
15998;BME280;8103;51.340;12.326;2023-05-03T04:57:24;101514.13;;;8.32;nan
15998;BME280;8103;51.340;12.326;2023-05-03T04:59:51;101516.00;;;8.25;nan
15998;BME280;8103;51.340;12.326;2023-05-03T05:02:19;101519.44;;;8.19;nan
15998;BME280;8103;51.340;12.326;2023-05-03T05:09:24;101528.31;;;8.32;nan
15998;BME280;8103;51.340;12.326;2023-05-03T05:11:52;101529.16;;;8.39;nan
15998;BME280;8103;51.340;12.326;2023-05-03T05:14:21;101522.78;;;8.47;nan
15998;BME280;8103;51.340;12.326;2023-05-03T05:16:49;101526.47;;;8.52;nan
15998;BME280;8103;51.340;12.326;2023-05-03T05:19:18;101518.25;;;8.60;nan
15998;BME280;8103;51.340;12.326;2023-05-03T05:21:46;101518.47;;;8.72;nan
15998;BME280;8103;51.340;12.326;2023-05-03T05:24:16;101518.22;;;8.80;nan
15998;BME280;8103;51.340;12.326;2023-05-03T05:26:43;101523.16;;;8.83;nan
15998;BME280;8103;51.340;12.326;2023-05-03T05:29:10;101533.44;;;8.86;nan
15998;BME280;8103;51.340;12.326;2023-05-03T05:31:37;101528.09;;;8.93;nan
15998;BME280;8103;51.340;12.326;2023-05-03T05:34:04;101525.59;;;8.98;nan
15998;BME280;8103;51.340;12.326;2023-05-03T05:36:31;101523.09;;;9.09;nan
15998;BME280;8103;51.340;12.326;2023-05-03T05:38:58;101528.25;;;9.17;nan
15998;BME280;8103;51.340;12.326;2023-05-03T05:41:25;101528.63;;;9.27;nan
15998;BME280;8103;51.340;12.326;2023-05-03T05:43:52;101536.66;;;9.34;nan
15998;BME280;8103;51.340;12.326;2023-05-03T05:46:19;101534.13;;;9.45;nan
15998;BME280;8103;51.340;12.326;2023-05-03T05:48:50;101540.06;;;9.54;nan
15998;BME280;8103;51.340;12.326;2023-05-03T05:51:18;101541.50;;;9.56;nan
15998;BME280;8103;51.340;12.326;2023-05-03T05:53:45;101537.97;;;9.62;nan
15998;BME280;8103;51.340;12.326;2023-05-03T05:56:12;101545.56;;;9.65;nan
15998;BME280;8103;51.340;12.326;2023-05-03T05:58:40;101541.25;;;9.64;nan
15998;BME280;8103;51.340;12.326;2023-05-03T06:05:07;101542.25;;;9.76;nan
15998;BME280;8103;51.340;12.326;2023-05-03T06:07:34;101545.50;;;9.78;nan
15998;BME280;8103;51.340;12.326;2023-05-03T06:14:08;101544.38;;;10.36;nan
15998;BME280;8103;51.340;12.326;2023-05-03T06:16:36;101546.63;;;10.39;nan
15998;BME280;8103;51.340;12.326;2023-05-03T06:19:03;101540.66;;;10.37;nan
15998;BME280;8103;51.340;12.326;2023-05-03T06:21:31;101547.28;;;10.35;nan
15998;BME280;8103;51.340;12.326;2023-05-03T06:24:00;101548.09;;;10.35;nan
15998;BME280;8103;51.340;12.326;2023-05-03T06:26:27;101542.28;;;10.38;nan
15998;BME280;8103;51.340;12.326;2023-05-03T06:28:57;101539.78;;;10.43;nan
15998;BME280;8103;51.340;12.326;2023-05-03T06:31:27;101546.69;;;10.57;nan
15998;BME280;8103;51.340;12.326;2023-05-03T06:33:55;101546.63;;;10.64;nan
15998;BME280;8103;51.340;12.326;2023-05-03T06:36:22;101549.63;;;10.74;nan
15998;BME280;8103;51.340;12.326;2023-05-03T06:38:48;101542.53;;;10.86;nan
15998;BME280;8103;51.340;12.326;2023-05-03T06:41:15;101547.16;;;10.97;nan
15998;BME280;8103;51.340;12.326;2023-05-03T06:43:43;101559.41;;;11.11;nan
15998;BME280;8103;51.340;12.326;2023-05-03T06:46:11;101549.94;;;11.27;nan
15998;BME280;8103;51.340;12.326;2023-05-03T06:48:38;101550.63;;;11.40;nan
15998;BME280;8103;51.340;12.326;2023-05-03T06:51:05;101548.63;;;11.54;nan
15998;BME280;8103;51.340;12.326;2023-05-03T06:53:33;101545.94;;;11.72;nan
15998;BME280;8103;51.340;12.326;2023-05-03T07:00:32;101555.25;;;12.17;nan
15998;BME280;8103;51.340;12.326;2023-05-03T07:02:59;101545.78;;;12.26;nan
15998;BME280;8103;51.340;12.326;2023-05-03T07:05:27;101544.75;;;12.27;nan
15998;BME280;8103;51.340;12.326;2023-05-03T07:12:00;101541.53;;;12.48;nan
15998;BME280;8103;51.340;12.326;2023-05-03T07:14:28;101548.91;;;12.64;nan
15998;BME280;8103;51.340;12.326;2023-05-03T07:16:54;101542.28;;;12.78;nan
15998;BME280;8103;51.340;12.326;2023-05-03T07:19:22;101536.44;;;13.04;nan
15998;BME280;8103;51.340;12.326;2023-05-03T07:21:48;101542.41;;;13.18;nan
15998;BME280;8103;51.340;12.326;2023-05-03T07:24:16;101539.91;;;13.39;nan
15998;BME280;8103;51.340;12.326;2023-05-03T07:26:44;101538.16;;;13.56;nan
15998;BME280;8103;51.340;12.326;2023-05-03T07:29:14;101536.78;;;13.70;nan
15998;BME280;8103;51.340;12.326;2023-05-03T07:31:42;101539.97;;;13.67;nan
15998;BME280;8103;51.340;12.326;2023-05-03T07:34:10;101545.75;;;13.87;nan
15998;BME280;8103;51.340;12.326;2023-05-03T07:36:38;101538.38;;;13.94;nan
15998;BME280;8103;51.340;12.326;2023-05-03T07:39:05;101543.66;;;14.17;nan
15998;BME280;8103;51.340;12.326;2023-05-03T07:41:33;101527.06;;;14.25;nan
15998;BME280;8103;51.340;12.326;2023-05-03T07:44:00;101531.88;;;14.51;nan
15998;BME280;8103;51.340;12.326;2023-05-03T07:46:26;101528.19;;;14.57;nan
15998;BME280;8103;51.340;12.326;2023-05-03T07:48:53;101534.53;;;14.35;nan
15998;BME280;8103;51.340;12.326;2023-05-03T07:51:20;101539.38;;;14.21;nan
15998;BME280;8103;51.340;12.326;2023-05-03T07:53:47;101529.41;;;14.50;nan
15998;BME280;8103;51.340;12.326;2023-05-03T07:56:14;101524.72;;;14.78;nan
15998;BME280;8103;51.340;12.326;2023-05-03T07:58:41;101521.97;;;14.57;nan
15998;BME280;8103;51.340;12.326;2023-05-03T08:01:10;101524.06;;;14.55;nan
15998;BME280;8103;51.340;12.326;2023-05-03T08:03:37;101518.84;;;14.32;nan
15998;BME280;8103;51.340;12.326;2023-05-03T08:06:04;101527.22;;;13.91;nan
15998;BME280;8103;51.340;12.326;2023-05-03T08:08:31;101533.19;;;13.65;nan
15998;BME280;8103;51.340;12.326;2023-05-03T08:11:00;101525.72;;;13.83;nan
15998;BME280;8103;51.340;12.326;2023-05-03T08:13:28;101526.38;;;13.62;nan
15998;BME280;8103;51.340;12.326;2023-05-03T08:15:55;101527.16;;;13.74;nan
15998;BME280;8103;51.340;12.326;2023-05-03T08:18:22;101516.56;;;14.73;nan
15998;BME280;8103;51.340;12.326;2023-05-03T08:20:51;101523.97;;;15.81;nan
15998;BME280;8103;51.340;12.326;2023-05-03T08:23:18;101524.97;;;16.23;nan
15998;BME280;8103;51.340;12.326;2023-05-03T08:25:45;101520.31;;;16.45;nan
15998;BME280;8103;51.340;12.326;2023-05-03T08:28:11;101516.06;;;16.54;nan
15998;BME280;8103;51.340;12.326;2023-05-03T08:30:39;101516.81;;;16.81;nan
15998;BME280;8103;51.340;12.326;2023-05-03T08:33:09;101524.94;;;17.74;nan
15998;BME280;8103;51.340;12.326;2023-05-03T08:35:36;101513.91;;;18.91;nan
15998;BME280;8103;51.340;12.326;2023-05-03T08:38:03;101514.38;;;19.92;nan
15998;BME280;8103;51.340;12.326;2023-05-03T08:40:31;101524.50;;;18.37;nan
15998;BME280;8103;51.340;12.326;2023-05-03T08:43:09;101523.09;;;17.38;nan
15998;BME280;8103;51.340;12.326;2023-05-03T08:45:38;101521.13;;;17.75;nan
15998;BME280;8103;51.340;12.326;2023-05-03T08:48:05;101515.84;;;18.60;nan
15998;BME280;8103;51.340;12.326;2023-05-03T08:50:33;101516.53;;;19.95;nan
15998;BME280;8103;51.340;12.326;2023-05-03T08:53:09;101508.78;;;21.13;nan
15998;BME280;8103;51.340;12.326;2023-05-03T08:55:36;101515.53;;;21.86;nan
15998;BME280;8103;51.340;12.326;2023-05-03T08:58:07;101517.59;;;21.05;nan
15998;BME280;8103;51.340;12.326;2023-05-03T09:00:39;101513.84;;;22.91;nan
15998;BME280;8103;51.340;12.326;2023-05-03T09:03:10;101515.41;;;23.11;nan
15998;BME280;8103;51.340;12.326;2023-05-03T09:09:40;101520.78;;;22.19;nan
15998;BME280;8103;51.340;12.326;2023-05-03T09:12:35;101518.50;;;20.95;nan
15998;BME280;8103;51.340;12.326;2023-05-03T09:15:05;101521.91;;;20.77;nan
15998;BME280;8103;51.340;12.326;2023-05-03T09:17:32;101512.56;;;21.82;nan
15998;BME280;8103;51.340;12.326;2023-05-03T09:19:59;101515.09;;;22.98;nan
15998;BME280;8103;51.340;12.326;2023-05-03T09:22:31;101514.34;;;24.37;nan
15998;BME280;8103;51.340;12.326;2023-05-03T09:25:00;101510.84;;;25.67;nan
15998;BME280;8103;51.340;12.326;2023-05-03T09:27:30;101517.47;;;26.85;nan
15998;BME280;8103;51.340;12.326;2023-05-03T09:30:19;101516.94;;;27.76;nan
15998;BME280;8103;51.340;12.326;2023-05-03T09:32:47;101510.31;;;28.71;nan
15998;BME280;8103;51.340;12.326;2023-05-03T09:35:15;101508.06;;;27.91;nan
15998;BME280;8103;51.340;12.326;2023-05-03T09:37:43;101508.13;;;29.69;nan
15998;BME280;8103;51.340;12.326;2023-05-03T09:40:10;101511.19;;;30.87;nan
15998;BME280;8103;51.340;12.326;2023-05-03T09:43:09;101511.03;;;31.92;nan
15998;BME280;8103;51.340;12.326;2023-05-03T09:45:38;101502.19;;;32.63;nan
15998;BME280;8103;51.340;12.326;2023-05-03T09:48:07;101500.13;;;33.01;nan
15998;BME280;8103;51.340;12.326;2023-05-03T09:50:35;101508.75;;;33.19;nan
15998;BME280;8103;51.340;12.326;2023-05-03T09:56:52;101506.31;;;30.40;nan
15998;BME280;8103;51.340;12.326;2023-05-03T09:59:20;101506.97;;;27.63;nan
15998;BME280;8103;51.340;12.326;2023-05-03T10:01:49;101501.59;;;28.93;nan
15998;BME280;8103;51.340;12.326;2023-05-03T10:04:19;101493.03;;;31.36;nan
15998;BME280;8103;51.340;12.326;2023-05-03T10:06:49;101500.53;;;33.48;nan
15998;BME280;8103;51.340;12.326;2023-05-03T10:09:38;101503.72;;;34.69;nan
15998;BME280;8103;51.340;12.326;2023-05-03T10:12:11;101498.03;;;35.38;nan
15998;BME280;8103;51.340;12.326;2023-05-03T10:14:45;101491.97;;;35.87;nan
15998;BME280;8103;51.340;12.326;2023-05-03T10:28:17;101482.94;;;38.83;nan
15998;BME280;8103;51.340;12.326;2023-05-03T10:30:45;101480.03;;;39.38;nan
15998;BME280;8103;51.340;12.326;2023-05-03T10:36:03;101482.72;;;41.02;nan
15998;BME280;8103;51.340;12.326;2023-05-03T10:38:36;101487.03;;;39.23;nan
15998;BME280;8103;51.340;12.326;2023-05-03T10:41:03;101485.88;;;37.72;nan
15998;BME280;8103;51.340;12.326;2023-05-03T10:47:32;101486.69;;;37.55;nan
15998;BME280;8103;51.340;12.326;2023-05-03T10:55:09;101484.34;;;42.28;nan
15998;BME280;8103;51.340;12.326;2023-05-03T10:57:38;101479.66;;;43.53;nan
15998;BME280;8103;51.340;12.326;2023-05-03T11:00:21;101493.22;;;44.15;nan
15998;BME280;8103;51.340;12.326;2023-05-03T11:05:39;101477.56;;;38.45;nan
15998;BME280;8103;51.340;12.326;2023-05-03T11:08:17;101472.72;;;34.77;nan
15998;BME280;8103;51.340;12.326;2023-05-03T11:10:49;101469.13;;;36.92;nan
15998;BME280;8103;51.340;12.326;2023-05-03T11:13:17;101474.72;;;36.88;nan
15998;BME280;8103;51.340;12.326;2023-05-03T11:15:44;101478.16;;;35.50;nan
15998;BME280;8103;51.340;12.326;2023-05-03T11:18:15;101471.41;;;37.84;nan
15998;BME280;8103;51.340;12.326;2023-05-03T11:20:42;101475.00;;;39.96;nan
15998;BME280;8103;51.340;12.326;2023-05-03T11:23:11;101470.63;;;41.51;nan
15998;BME280;8103;51.340;12.326;2023-05-03T11:25:38;101466.53;;;43.30;nan
15998;BME280;8103;51.340;12.326;2023-05-03T11:28:05;101476.72;;;44.51;nan
15998;BME280;8103;51.340;12.326;2023-05-03T11:30:34;101477.06;;;44.41;nan
15998;BME280;8103;51.340;12.326;2023-05-03T11:33:03;101466.16;;;43.73;nan
15998;BME280;8103;51.340;12.326;2023-05-03T11:35:30;101466.75;;;43.52;nan
15998;BME280;8103;51.340;12.326;2023-05-03T11:37:58;101461.66;;;43.88;nan
15998;BME280;8103;51.340;12.326;2023-05-03T11:40:25;101466.81;;;43.20;nan
15998;BME280;8103;51.340;12.326;2023-05-03T11:43:00;101458.81;;;42.35;nan
15998;BME280;8103;51.340;12.326;2023-05-03T11:49:35;101467.56;;;44.72;nan
15998;BME280;8103;51.340;12.326;2023-05-03T11:52:02;101456.94;;;45.10;nan
15998;BME280;8103;51.340;12.326;2023-05-03T11:54:29;101464.19;;;45.80;nan
15998;BME280;8103;51.340;12.326;2023-05-03T11:56:57;101459.84;;;46.88;nan
15998;BME280;8103;51.340;12.326;2023-05-03T12:04:02;101452.03;;;46.71;nan
15998;BME280;8103;51.340;12.326;2023-05-03T12:06:32;101452.19;;;46.37;nan
15998;BME280;8103;51.340;12.326;2023-05-03T12:09:03;101461.81;;;46.79;nan
15998;BME280;8103;51.340;12.326;2023-05-03T12:11:40;101458.94;;;47.64;nan
15998;BME280;8103;51.340;12.326;2023-05-03T12:14:09;101463.00;;;47.08;nan
15998;BME280;8103;51.340;12.326;2023-05-03T12:16:48;101456.03;;;46.43;nan
15998;BME280;8103;51.340;12.326;2023-05-03T12:19:28;101468.69;;;47.99;nan
15998;BME280;8103;51.340;12.326;2023-05-03T12:21:58;101448.31;;;48.33;nan
15998;BME280;8103;51.340;12.326;2023-05-03T12:24:45;101455.78;;;48.30;nan
15998;BME280;8103;51.340;12.326;2023-05-03T12:27:16;101455.19;;;48.26;nan
15998;BME280;8103;51.340;12.326;2023-05-03T12:29:48;101452.34;;;48.17;nan
15998;BME280;8103;51.340;12.326;2023-05-03T12:32:17;101448.56;;;48.11;nan
15998;BME280;8103;51.340;12.326;2023-05-03T12:34:44;101445.47;;;47.91;nan
15998;BME280;8103;51.340;12.326;2023-05-03T12:37:12;101441.91;;;48.14;nan
15998;BME280;8103;51.340;12.326;2023-05-03T12:39:42;101430.00;;;47.47;nan
15998;BME280;8103;51.340;12.326;2023-05-03T12:42:11;101425.00;;;46.18;nan
15998;BME280;8103;51.340;12.326;2023-05-03T12:44:40;101431.81;;;44.87;nan
15998;BME280;8103;51.340;12.326;2023-05-03T12:47:09;101430.75;;;46.36;nan
15998;BME280;8103;51.340;12.326;2023-05-03T12:49:36;101436.00;;;47.67;nan
15998;BME280;8103;51.340;12.326;2023-05-03T12:52:11;101425.00;;;48.02;nan
15998;BME280;8103;51.340;12.326;2023-05-03T12:54:59;101417.97;;;47.16;nan
15998;BME280;8103;51.340;12.326;2023-05-03T12:57:29;101423.06;;;47.30;nan
15998;BME280;8103;51.340;12.326;2023-05-03T13:00:00;101415.13;;;47.61;nan
15998;BME280;8103;51.340;12.326;2023-05-03T13:02:29;101416.41;;;47.33;nan
15998;BME280;8103;51.340;12.326;2023-05-03T13:04:59;101412.72;;;47.78;nan
15998;BME280;8103;51.340;12.326;2023-05-03T13:07:28;101415.56;;;47.78;nan
15998;BME280;8103;51.340;12.326;2023-05-03T13:09:58;101415.13;;;47.70;nan
15998;BME280;8103;51.340;12.326;2023-05-03T13:12:27;101399.72;;;48.36;nan
15998;BME280;8103;51.340;12.326;2023-05-03T13:14:57;101394.22;;;49.03;nan
15998;BME280;8103;51.340;12.326;2023-05-03T13:17:24;101396.78;;;48.54;nan
15998;BME280;8103;51.340;12.326;2023-05-03T13:23:58;101382.81;;;47.91;nan
15998;BME280;8103;51.340;12.326;2023-05-03T13:26:25;101380.75;;;49.04;nan
15998;BME280;8103;51.340;12.326;2023-05-03T13:28:53;101384.66;;;48.68;nan
15998;BME280;8103;51.340;12.326;2023-05-03T13:31:20;101376.22;;;46.68;nan
15998;BME280;8103;51.340;12.326;2023-05-03T13:33:49;101370.69;;;46.16;nan
15998;BME280;8103;51.340;12.326;2023-05-03T13:36:20;101375.03;;;45.99;nan
15998;BME280;8103;51.340;12.326;2023-05-03T13:38:49;101368.38;;;44.72;nan
15998;BME280;8103;51.340;12.326;2023-05-03T13:41:18;101371.47;;;44.53;nan
15998;BME280;8103;51.340;12.326;2023-05-03T13:43:46;101364.00;;;45.48;nan
15998;BME280;8103;51.340;12.326;2023-05-03T13:46:13;101364.72;;;45.62;nan
15998;BME280;8103;51.340;12.326;2023-05-03T13:48:41;101359.09;;;45.71;nan
15998;BME280;8103;51.340;12.326;2023-05-03T13:51:12;101358.22;;;45.52;nan
15998;BME280;8103;51.340;12.326;2023-05-03T13:53:39;101351.03;;;44.70;nan
15998;BME280;8103;51.340;12.326;2023-05-03T13:56:10;101340.97;;;44.69;nan
15998;BME280;8103;51.340;12.326;2023-05-03T13:58:37;101349.16;;;44.42;nan
15998;BME280;8103;51.340;12.326;2023-05-03T14:01:06;101350.09;;;43.89;nan
15998;BME280;8103;51.340;12.326;2023-05-03T14:03:33;101350.31;;;44.32;nan
15998;BME280;8103;51.340;12.326;2023-05-03T14:06:01;101344.44;;;44.86;nan
15998;BME280;8103;51.340;12.326;2023-05-03T14:08:28;101350.50;;;44.50;nan
15998;BME280;8103;51.340;12.326;2023-05-03T14:10:58;101350.25;;;44.57;nan
15998;BME280;8103;51.340;12.326;2023-05-03T14:17:24;101344.75;;;45.00;nan
15998;BME280;8103;51.340;12.326;2023-05-03T14:19:51;101342.22;;;45.02;nan
15998;BME280;8103;51.340;12.326;2023-05-03T14:22:18;101340.09;;;44.22;nan
15998;BME280;8103;51.340;12.326;2023-05-03T14:24:48;101335.97;;;42.91;nan
15998;BME280;8103;51.340;12.326;2023-05-03T14:27:15;101329.81;;;42.80;nan
15998;BME280;8103;51.340;12.326;2023-05-03T14:29:50;101328.53;;;43.54;nan
15998;BME280;8103;51.340;12.326;2023-05-03T14:32:17;101335.22;;;43.19;nan
15998;BME280;8103;51.340;12.326;2023-05-03T14:34:43;101326.38;;;41.72;nan
15998;BME280;8103;51.340;12.326;2023-05-03T14:37:11;101319.91;;;41.92;nan
15998;BME280;8103;51.340;12.326;2023-05-03T14:39:38;101310.84;;;39.23;nan
15998;BME280;8103;51.340;12.326;2023-05-03T14:42:05;101310.66;;;35.61;nan
15998;BME280;8103;51.340;12.326;2023-05-03T14:44:32;101311.75;;;32.72;nan
15998;BME280;8103;51.340;12.326;2023-05-03T14:46:59;101305.94;;;30.33;nan
15998;BME280;8103;51.340;12.326;2023-05-03T14:49:26;101307.72;;;28.43;nan
15998;BME280;8103;51.340;12.326;2023-05-03T14:51:53;101312.25;;;27.09;nan
15998;BME280;8103;51.340;12.326;2023-05-03T14:54:20;101305.75;;;26.17;nan
15998;BME280;8103;51.340;12.326;2023-05-03T14:56:48;101303.94;;;26.21;nan
15998;BME280;8103;51.340;12.326;2023-05-03T14:59:16;101310.16;;;27.06;nan